Terminal Aerodrome Forecast
Issued by NWS Salt Lake City, UT

Home | Current Version | Previous Version | Text Only | Print | Product List | Glossary On
Versions: 1 2 3 4 5 6 7 8 9 10 11 12 13 14 15 16 17
000
FTUS45 KSLC 301721
TAFCDC
TAF
KCDC 301721Z 3018/3118 22016G26KT P6SM SCT080 BKN100
     FM310000 29011KT 6SM -RA SCT020 BKN040
     FM310200 34011KT 1SM -SN BR SCT008 BKN015=

USA.gov is the U.S. government's official web portal to all federal, state and local government web resources and services.